Time;durP1;ratioP1;P1;durP2;ratioP2;P2;SDS_P1;SDS_P2;PMS_P1;PMS_P2;Temp;Humidity;BMP_temperature;BMP_pressure;BME280_temperature;BME280_humidity;BME280_pressure;Samples;Min_cycle;Max_cycle;Signal;HPM_P1;HPM_P2
2022/08/05 00:02:54;;;;;;;7.43;5.00;;;;;;;21.73;57.67;99226.59;8357899;28;20052;-87
2022/08/05 00:06:56;;;;;;;11.85;4.95;;;;;;;21.68;57.56;99224.19;8347286;28;20597;-88
2022/08/05 00:10:58;;;;;;;9.30;5.28;;;;;;;21.62;57.99;99220.19;8361913;28;20486;-87
2022/08/05 00:14:59;;;;;;;12.48;5.40;;;;;;;21.55;58.13;99225.63;8353104;28;20064;-87
2022/08/05 00:19:00;;;;;;;8.77;5.45;;;;;;;21.54;57.91;99218.53;8350634;28;20041;-88
2022/08/05 00:23:01;;;;;;;10.43;4.95;;;;;;;21.49;57.97;99223.22;8352091;28;20390;-89
2022/08/05 00:27:02;;;;;;;6.78;5.13;;;;;;;21.44;58.34;99215.31;8353537;28;20040;-87
2022/08/05 00:31:04;;;;;;;9.65;5.95;;;;;;;21.38;58.36;99211.34;8354916;28;20387;-87
2022/08/05 00:35:06;;;;;;;13.07;5.10;;;;;;;21.35;58.42;99209.34;8344517;28;20052;-87
2022/08/05 00:39:08;;;;;;;8.70;4.80;;;;;;;21.32;58.48;99207.34;8361334;28;20446;-86
2022/08/05 00:43:12;;;;;;;12.77;5.25;;;;;;;21.28;58.55;99201.03;8362869;28;20421;-87
2022/08/05 00:47:13;;;;;;;9.75;5.43;;;;;;;21.22;58.81;99202.53;8355338;28;20117;-87
2022/08/05 00:51:14;;;;;;;10.13;5.38;;;;;;;21.17;58.81;99197.38;8361247;28;20536;-87
2022/08/05 00:55:15;;;;;;;12.23;5.55;;;;;;;21.14;59.11;99200.91;8360860;28;20091;-87
2022/08/05 00:59:16;;;;;;;9.73;5.80;;;;;;;21.09;59.29;99198.47;8362279;28;20053;-86
2022/08/05 01:03:17;;;;;;;11.68;5.78;;;;;;;21.08;59.17;99191.38;8362750;28;20048;-86
2022/08/05 01:07:18;;;;;;;12.13;5.85;;;;;;;21.03;59.21;99183.50;8362312;28;20045;-87
2022/08/05 01:11:22;;;;;;;11.18;5.38;;;;;;;20.99;59.27;99188.16;8362432;28;20132;-86
2022/08/05 01:15:31;;;;;;;12.05;5.75;;;;;;;20.96;59.43;99183.41;8361936;28;20060;-89
2022/08/05 01:19:32;;;;;;;10.95;5.57;;;;;;;20.93;59.37;99178.69;8361664;28;20163;-86
2022/08/05 01:23:45;;;;;;;10.50;5.50;;;;;;;20.89;59.50;99166.84;8362147;28;20076;-86
2022/08/05 01:27:54;;;;;;;8.07;4.90;;;;;;;20.87;59.52;99170.00;8362377;28;20045;-89
2022/08/05 01:31:59;;;;;;;16.48;5.43;;;;;;;20.84;59.90;99164.44;8361939;28;20057;-88
2022/08/05 01:36:03;;;;;;;10.00;5.38;;;;;;;20.80;59.67;99152.63;8361017;28;20470;-88
2022/08/05 01:40:05;;;;;;;11.75;5.00;;;;;;;20.77;59.95;99164.38;8360240;28;20052;-88
2022/08/05 01:44:07;;;;;;;8.25;5.45;;;;;;;20.75;59.87;99150.22;8362121;28;20037;-86
2022/08/05 01:48:08;;;;;;;17.77;5.70;;;;;;;20.74;59.68;99148.66;8357698;28;20037;-88
2022/08/05 01:52:11;;;;;;;11.65;5.25;;;;;;;20.70;59.93;99153.31;8360586;28;20410;-88
2022/08/05 01:56:13;;;;;;;7.18;5.10;;;;;;;20.71;59.91;99138.44;8360229;28;20045;-87
2022/08/05 02:00:14;;;;;;;12.05;5.43;;;;;;;20.65;60.02;99144.25;8360678;28;20036;-88
2022/08/05 02:04:17;;;;;;;7.53;4.75;;;;;;;20.63;60.04;99138.34;8360401;28;20140;-86
2022/08/05 02:08:18;;;;;;;12.65;5.50;;;;;;;20.58;60.33;99141.41;8345993;28;20553;-86
2022/08/05 02:12:25;;;;;;;13.95;5.32;;;;;;;20.57;60.22;99134.34;8361453;28;20056;-87
2022/08/05 02:16:48;;;;;;;6.80;5.35;;;;;;;20.54;60.32;99135.09;8361406;28;20061;-87
2022/08/05 02:21:02;;;;;;;5.35;4.75;;;;;;;20.52;60.41;99126.44;8358911;28;20041;-87
2022/08/05 02:25:07;;;;;;;6.90;5.28;;;;;;;20.46;60.39;99127.94;8359659;28;20051;-87
2022/08/05 02:29:11;;;;;;;10.25;5.45;;;;;;;20.44;60.54;99130.28;8360777;28;20045;-88
2022/08/05 02:33:16;;;;;;;8.35;5.20;;;;;;;20.44;60.44;99127.53;8361095;28;20098;-87
2022/08/05 02:37:18;;;;;;;15.55;5.38;;;;;;;20.41;60.38;99114.56;8359859;28;20475;-86
2022/08/05 02:41:20;;;;;;;6.70;4.95;;;;;;;20.40;60.45;99113.00;8389457;28;20057;-84
2022/08/05 02:45:24;;;;;;;10.20;5.68;;;;;;;20.35;60.34;99116.06;8389683;28;20048;-86
2022/08/05 02:49:29;;;;;;;10.20;5.30;;;;;;;20.32;60.59;99111.31;8373462;28;20131;-86
2022/08/05 02:53:33;;;;;;;9.05;5.45;;;;;;;20.30;60.59;99119.13;8373358;28;20059;-87
2022/08/05 02:57:35;;;;;;;10.10;5.05;;;;;;;20.30;60.63;99123.81;8392455;28;20555;-89
2022/08/05 03:01:39;;;;;;;7.57;5.03;;;;;;;20.27;60.61;99114.34;8379838;28;20049;-88
2022/08/05 03:05:40;;;;;;;8.82;5.38;;;;;;;20.24;60.81;99115.13;8396457;28;20141;-88
2022/08/05 03:09:43;;;;;;;7.07;5.30;;;;;;;20.20;60.78;99103.28;8375984;28;20037;-89
2022/08/05 03:13:45;;;;;;;10.85;5.18;;;;;;;20.13;61.19;99108.69;8366716;28;20045;-91
2022/08/05 03:17:46;;;;;;;8.27;5.25;;;;;;;20.12;61.12;99107.13;8367616;28;20060;-89
2022/08/05 03:21:46;;;;;;;8.13;5.80;;;;;;;20.10;61.13;99103.94;8362732;28;20088;-87
2022/08/05 03:25:47;;;;;;;8.98;5.10;;;;;;;20.05;61.37;99101.53;8364482;28;20107;-87
2022/08/05 03:29:48;;;;;;;11.63;5.20;;;;;;;20.04;61.21;99105.47;8364990;28;20045;-89
2022/08/05 03:33:50;;;;;;;9.50;5.40;;;;;;;20.01;61.41;99100.69;8365708;28;20044;-85
2022/08/05 03:37:52;;;;;;;10.38;5.13;;;;;;;19.99;61.39;99103.00;8364883;28;20551;-88
2022/08/05 03:41:54;;;;;;;10.05;5.10;;;;;;;19.98;61.50;99098.72;8364362;28;20041;-88
2022/08/05 03:45:55;;;;;;;13.63;5.72;;;;;;;19.96;61.57;99092.81;8362391;28;20049;-89
2022/08/05 03:49:56;;;;;;;12.10;5.85;;;;;;;19.94;61.66;99095.13;8347539;28;20101;-89
2022/08/05 03:54:21;;;;;;;10.65;5.82;;;;;;;19.93;62.08;99093.56;8366489;28;20483;-85
2022/08/05 03:58:23;;;;;;;12.32;5.60;;;;;;;19.88;62.07;99096.63;8364631;28;20049;-88
2022/08/05 04:02:26;;;;;;;12.30;5.75;;;;;;;19.89;62.00;99093.50;8365796;28;20057;-89
2022/08/05 04:06:27;;;;;;;9.73;5.13;;;;;;;19.88;62.02;99091.13;8364813;28;20470;-87
2022/08/05 04:10:29;;;;;;;14.25;5.47;;;;;;;19.91;62.52;99096.66;8364737;28;20053;-88
2022/08/05 04:14:33;;;;;;;7.63;5.82;;;;;;;19.92;62.16;99086.50;8362717;28;20414;-89
2022/08/05 04:18:34;;;;;;;12.35;5.78;;;;;;;19.90;62.24;99099.75;8365197;28;20029;-88
2022/08/05 04:22:36;;;;;;;11.43;5.60;;;;;;;19.90;62.67;99083.31;8363946;28;20048;-89
2022/08/05 04:26:37;;;;;;;13.88;5.45;;;;;;;19.91;62.53;99079.41;8390197;28;20992;-89
2022/08/05 04:30:40;;;;;;;10.43;5.80;;;;;;;19.92;62.55;99083.75;8364171;28;20051;-87
2022/08/05 04:34:41;;;;;;;10.52;5.30;;;;;;;19.95;62.43;99074.78;8362658;28;20116;-89
2022/08/05 04:38:43;;;;;;;14.20;5.80;;;;;;;19.98;62.54;99074.03;8355972;28;20048;-89
2022/08/05 04:42:43;;;;;;;11.30;5.43;;;;;;;19.99;62.47;99081.88;8334016;28;20042;-88
2022/08/05 04:46:44;;;;;;;8.77;5.45;;;;;;;20.04;62.45;99084.28;8336693;28;20494;-88
2022/08/05 04:50:48;;;;;;;11.75;5.88;;;;;;;20.08;62.59;99078.88;8347334;28;20505;-89
2022/08/05 04:54:49;;;;;;;10.13;6.25;;;;;;;20.12;62.53;99076.97;8360990;28;20466;-90
2022/08/05 04:58:50;;;;;;;10.85;5.93;;;;;;;20.13;62.88;99084.03;8343274;28;20037;-87
2022/08/05 05:02:51;;;;;;;12.88;6.53;;;;;;;20.18;62.99;99072.72;8349336;28;20045;-87
2022/08/05 05:06:52;;;;;;;11.63;6.43;;;;;;;20.21;62.92;99085.69;8341184;28;20087;-86
2022/08/05 05:10:54;;;;;;;12.70;6.40;;;;;;;20.26;63.12;99090.84;8339650;28;20068;-88
2022/08/05 05:14:55;;;;;;;13.07;6.07;;;;;;;20.31;63.09;99090.53;8335678;28;20103;-88
2022/08/05 05:18:56;;;;;;;11.15;6.80;;;;;;;20.37;63.27;99091.00;8342647;28;20144;-88
2022/08/05 05:23:04;;;;;;;16.60;6.60;;;;;;;20.43;62.98;99089.50;8340475;28;20083;-91
2022/08/05 05:27:05;;;;;;;15.70;6.90;;;;;;;20.49;63.26;99094.28;8335255;28;20053;-85
2022/08/05 05:31:06;;;;;;;12.02;6.50;;;;;;;20.55;63.15;99087.31;8358908;28;20083;-88
2022/08/05 05:35:08;;;;;;;11.52;6.78;;;;;;;20.56;63.72;99083.41;8360101;28;20513;-86
2022/08/05 05:39:08;;;;;;;15.02;7.40;;;;;;;20.61;63.75;99085.81;8367064;28;20037;-88
2022/08/05 05:43:09;;;;;;;14.00;7.32;;;;;;;20.62;64.30;99081.88;8361592;28;20056;-90
2022/08/05 05:47:10;;;;;;;12.35;7.30;;;;;;;20.70;64.30;99081.97;8362070;28;20056;-90
2022/08/05 05:51:17;;;;;;;12.30;7.25;;;;;;;20.77;64.64;99082.03;8361527;28;20048;-88
2022/08/05 05:55:18;;;;;;;11.90;6.90;;;;;;;20.83;64.72;99080.53;8361730;28;20049;-89
2022/08/05 05:59:19;;;;;;;15.80;7.22;;;;;;;20.91;64.78;99082.97;8360850;28;20053;-89
2022/08/05 06:03:20;;;;;;;16.33;6.80;;;;;;;21.00;64.84;99085.41;8349147;28;20706;-88
2022/08/05 06:07:21;;;;;;;12.93;6.68;;;;;;;21.07;64.87;99085.47;8361301;28;20098;-88
2022/08/05 06:11:22;;;;;;;10.45;7.18;;;;;;;21.16;65.00;99087.91;8348258;28;20053;-89
2022/08/05 06:15:23;;;;;;;18.88;7.63;;;;;;;21.27;64.98;99094.28;8361691;28;20056;-89
2022/08/05 06:19:25;;;;;;;14.48;7.32;;;;;;;21.35;64.65;99088.50;8359742;28;20049;-86
2022/08/05 06:23:26;;;;;;;15.05;7.38;;;;;;;21.45;64.79;99087.78;8359992;28;20037;-88
2022/08/05 06:27:27;;;;;;;17.50;7.78;;;;;;;21.56;64.85;99089.81;8342033;28;20144;-88
2022/08/05 06:31:28;;;;;;;15.95;6.97;;;;;;;21.68;64.77;99081.28;8361834;28;20091;-89
2022/08/05 06:35:29;;;;;;;20.05;8.15;;;;;;;21.82;65.25;99082.13;8366393;28;20053;-88
2022/08/05 06:39:30;;;;;;;15.75;7.25;;;;;;;21.97;65.22;99085.00;8331713;28;20107;-88
2022/08/05 06:43:31;;;;;;;15.75;7.35;;;;;;;22.08;65.51;99083.88;8366257;28;20045;-89
2022/08/05 06:47:38;;;;;;;16.17;7.78;;;;;;;22.24;65.19;99076.09;8365001;28;20577;-88
2022/08/05 06:51:49;;;;;;;13.07;7.60;;;;;;;22.42;64.95;99091.88;8360166;28;20140;-91
2022/08/05 06:55:50;;;;;;;14.68;7.88;;;;;;;22.54;65.08;99086.00;8365742;28;20033;-89
2022/08/05 06:59:52;;;;;;;18.42;8.43;;;;;;;22.67;65.39;99087.25;8367087;28;20044;-88
2022/08/05 07:03:54;;;;;;;17.25;8.10;;;;;;;22.80;65.29;99082.94;8366304;28;20105;-90
2022/08/05 07:07:54;;;;;;;13.70;8.05;;;;;;;22.93;65.07;99077.88;8351156;28;20048;-89
2022/08/05 07:11:55;;;;;;;19.55;7.88;;;;;;;23.04;64.81;99073.97;8365565;28;20490;-86
2022/08/05 07:20:16;;;;;;;13.65;7.95;;;;;;;23.28;64.34;99066.06;8366340;28;21244;-88
2022/08/05 07:24:17;;;;;;;13.13;7.60;;;;;;;23.44;64.09;99074.72;8366407;28;20041;-86
2022/08/05 07:28:18;;;;;;;13.10;7.85;;;;;;;23.52;63.59;99066.09;8364494;28;20037;-87
2022/08/05 07:32:19;;;;;;;13.95;8.02;;;;;;;23.64;63.44;99078.66;8360307;28;20041;-89
2022/08/05 07:36:20;;;;;;;15.95;8.40;;;;;;;23.80;62.86;99076.28;8366162;28;20474;-87
2022/08/05 07:40:21;;;;;;;11.48;7.50;;;;;;;23.96;62.68;99065.59;8365977;28;20046;-85
2022/08/05 07:44:22;;;;;;;19.25;7.97;;;;;;;24.09;62.35;99073.44;8365036;28;20056;-90
2022/08/05 07:48:23;;;;;;;17.67;7.82;;;;;;;24.25;62.95;99068.28;8365689;28;20064;-90
2022/08/05 07:52:24;;;;;;;14.82;8.25;;;;;;;24.42;62.43;99061.13;8365601;28;20045;-88
2022/08/05 07:56:25;;;;;;;19.95;7.78;;;;;;;24.57;61.69;99062.59;8365612;28;20045;-87
2022/08/05 08:00:26;;;;;;;11.15;7.15;;;;;;;24.71;61.46;99063.31;8330015;28;20053;-89
2022/08/05 08:04:27;;;;;;;10.38;7.05;;;;;;;24.86;60.96;99068.72;8365094;28;20053;-87
2022/08/05 08:08:29;;;;;;;13.70;7.55;;;;;;;25.01;60.38;99070.25;8365102;28;20053;-88
2022/08/05 08:12:30;;;;;;;11.07;7.75;;;;;;;25.14;59.98;99068.56;8362733;28;20730;-90
2022/08/05 08:16:31;;;;;;;16.67;8.20;;;;;;;25.25;59.92;99074.78;8364957;28;20068;-88
2022/08/05 08:20:35;;;;;;;12.15;7.47;;;;;;;25.39;59.75;99074.66;8362174;28;20143;-90
2022/08/05 08:24:37;;;;;;;10.55;7.40;;;;;;;25.57;59.34;99069.78;8364979;28;20064;-87
2022/08/05 08:28:38;;;;;;;16.05;7.38;;;;;;;25.71;58.59;99073.59;8363330;28;20045;-87
2022/08/05 08:32:39;;;;;;;16.13;7.70;;;;;;;25.86;58.74;99075.00;8364361;28;20521;-90
2022/08/05 08:36:39;;;;;;;14.90;7.32;;;;;;;26.07;58.52;99069.25;8364242;28;20045;-88
2022/08/05 08:40:41;;;;;;;12.70;6.78;;;;;;;26.22;57.75;99070.69;8363952;28;20049;-89
2022/08/05 08:44:45;;;;;;;10.32;7.10;;;;;;;26.39;55.77;99064.13;8364288;28;20072;-89
2022/08/05 08:48:46;;;;;;;13.75;7.13;;;;;;;26.55;55.21;99071.03;8363780;28;20175;-90
2022/08/05 08:52:58;;;;;;;12.02;6.82;;;;;;;26.67;54.89;99073.25;8362380;28;20048;-90
2022/08/05 08:56:59;;;;;;;16.13;7.00;;;;;;;26.85;54.62;99073.81;8362281;28;20061;-88
2022/08/05 09:01:00;;;;;;;12.40;6.28;;;;;;;27.06;52.56;99067.97;8362654;28;20128;-89
2022/08/05 09:05:02;;;;;;;11.02;6.47;;;;;;;27.26;50.86;99071.59;8362177;28;20052;-89
2022/08/05 09:09:03;;;;;;;16.48;6.28;;;;;;;27.42;50.68;99072.91;8376080;28;20051;-88
2022/08/05 09:13:04;;;;;;;9.48;6.30;;;;;;;27.57;50.51;99068.72;8363881;28;20490;-89
2022/08/05 09:17:08;;;;;;;7.72;5.63;;;;;;;27.76;50.67;99065.19;8363961;28;20052;-88
2022/08/05 09:21:09;;;;;;;6.93;5.30;;;;;;;27.93;48.61;99058.50;8376164;28;20060;-89
2022/08/05 09:25:09;;;;;;;13.65;5.53;;;;;;;28.12;47.70;99055.00;8361160;28;20144;-88
2022/08/05 09:29:10;;;;;;;8.77;5.18;;;;;;;28.29;45.96;99055.06;8349737;28;20055;-88
2022/08/05 09:33:11;;;;;;;8.30;4.90;;;;;;;28.43;46.34;99052.75;8360076;28;20052;-89
2022/08/05 09:37:21;;;;;;;11.07;4.90;;;;;;;28.53;46.29;99056.50;8358610;28;20123;-87
2022/08/05 09:41:21;;;;;;;6.38;4.85;;;;;;;28.66;45.99;99054.63;8361626;28;20052;-88
2022/08/05 09:45:39;;;;;;;9.23;5.10;;;;;;;28.78;46.19;99056.75;8360860;28;20411;-88
2022/08/05 09:49:48;;;;;;;9.85;4.75;;;;;;;28.91;45.83;99054.09;8389288;28;20159;-88
2022/08/05 09:53:51;;;;;;;11.73;5.65;;;;;;;29.04;45.58;99052.16;8361156;28;20053;-88
2022/08/05 09:57:52;;;;;;;6.85;4.90;;;;;;;29.16;44.83;99053.47;8359412;28;20048;-87
2022/08/05 10:01:53;;;;;;;9.50;4.85;;;;;;;29.23;43.98;99053.31;8355730;28;20056;-88
2022/08/05 10:06:20;;;;;;;6.38;3.75;;;;;;;29.41;42.08;99059.22;8359406;28;20112;-89
2022/08/05 10:10:26;;;;;;;9.35;4.43;;;;;;;29.54;42.66;99062.88;8324155;28;20426;-88
2022/08/05 10:14:32;;;;;;;7.90;4.55;;;;;;;29.68;41.75;99062.50;8324991;28;20050;-88
2022/08/05 10:18:33;;;;;;;5.78;3.92;;;;;;;29.86;40.70;99055.66;8339087;28;20049;-89
2022/08/05 10:22:37;;;;;;;4.03;3.65;;;;;;;30.00;39.91;99049.72;8351508;28;20049;-89
2022/08/05 10:26:41;;;;;;;5.57;3.63;;;;;;;30.08;38.26;99051.09;8333610;28;20057;-87
2022/08/05 10:30:42;;;;;;;5.50;3.75;;;;;;;30.12;38.91;99046.19;8344886;28;20127;-90
2022/08/05 10:34:44;;;;;;;8.52;3.35;;;;;;;30.25;38.83;99038.66;8336990;28;20053;-87
2022/08/05 10:38:47;;;;;;;5.63;3.55;;;;;;;30.39;39.05;99043.81;8328230;28;20510;-90
2022/08/05 10:42:51;;;;;;;7.00;3.60;;;;;;;30.55;39.56;99040.97;8329757;28;20135;-88
2022/08/05 10:46:54;;;;;;;6.45;3.38;;;;;;;30.69;39.21;99031.38;8350415;28;20048;-90
2022/08/05 10:51:06;;;;;;;6.63;3.22;;;;;;;30.74;39.32;99032.81;8359248;28;20049;-90
2022/08/05 10:55:12;;;;;;;15.93;3.92;;;;;;;30.84;37.73;99034.47;8359854;28;20057;-89
2022/08/05 10:59:25;;;;;;;5.40;3.55;;;;;;;30.85;37.91;99030.47;8360144;28;20049;-89
2022/08/05 11:03:26;;;;;;;6.35;3.90;;;;;;;30.92;37.81;99031.03;8360098;28;20052;-89
2022/08/05 11:07:27;;;;;;;7.05;3.25;;;;;;;31.03;38.31;99025.94;8359995;28;20060;-90
2022/08/05 11:11:34;;;;;;;6.43;3.20;;;;;;;31.18;35.34;99031.81;8359046;28;20099;-86
2022/08/05 11:15:42;;;;;;;5.10;3.70;;;;;;;31.36;36.44;99026.38;8352653;28;20056;-87
2022/08/05 11:19:47;;;;;;;6.45;3.55;;;;;;;31.57;34.78;99035.28;8363376;28;20388;-87
2022/08/05 11:23:52;;;;;;;5.07;3.45;;;;;;;31.48;35.57;99021.22;8365002;28;20526;-88
2022/08/05 11:27:54;;;;;;;5.82;3.60;;;;;;;31.30;36.46;99028.19;8364131;28;20069;-88
2022/08/05 11:32:26;;;;;;;15.15;3.78;;;;;;;31.54;36.54;99019.41;8365349;28;20044;-88
2022/08/05 11:36:50;;;;;;;7.63;3.67;;;;;;;31.56;36.62;99028.13;8359639;28;20102;-88
2022/08/05 11:41:00;;;;;;;4.22;3.47;;;;;;;31.73;36.30;99033.09;8364473;28;20056;-89
2022/08/05 11:45:03;;;;;;;7.57;3.40;;;;;;;31.84;35.33;99032.72;8365363;28;20072;-87
2022/08/05 11:49:12;;;;;;;6.78;3.45;;;;;;;31.42;36.54;99034.97;8363134;28;20135;-88
2022/08/05 11:53:13;;;;;;;9.80;4.18;;;;;;;31.18;36.22;99031.81;8366013;28;20056;-88
2022/08/05 11:57:14;;;;;;;5.05;3.95;;;;;;;31.36;36.39;99043.13;8392194;28;20096;-87
2022/08/05 12:01:20;;;;;;;5.25;3.90;;;;;;;31.64;36.15;99029.47;8363043;28;20053;-87
2022/08/05 12:05:26;;;;;;;6.55;3.85;;;;;;;31.90;37.11;99025.31;8363573;28;20053;-88
2022/08/05 12:09:29;;;;;;;6.75;3.83;;;;;;;32.06;35.61;99022.31;8360780;28;20075;-87
2022/08/05 12:13:30;;;;;;;6.88;3.83;;;;;;;32.15;36.08;99022.41;8361059;28;20041;-89
2022/08/05 12:17:35;;;;;;;5.43;3.65;;;;;;;32.25;36.20;99024.00;8361419;28;20068;-88
2022/08/05 12:21:48;;;;;;;7.53;3.95;;;;;;;32.33;35.88;99012.56;8363671;28;20052;-88
2022/08/05 12:25:52;;;;;;;10.10;3.45;;;;;;;32.37;35.74;99013.22;8357621;28;20502;-90
2022/08/05 12:30:12;;;;;;;8.65;3.90;;;;;;;32.43;34.51;99016.97;8362248;28;20479;-89
2022/08/05 12:34:14;;;;;;;8.48;3.50;;;;;;;32.47;34.58;99007.22;8360761;28;20053;-86
2022/08/05 12:38:15;;;;;;;7.53;3.47;;;;;;;32.57;35.07;98994.06;8356229;28;20049;-88
2022/08/05 12:42:17;;;;;;;9.43;3.50;;;;;;;32.64;35.05;98993.78;8349479;28;20554;-89
2022/08/05 12:46:23;;;;;;;5.68;3.42;;;;;;;32.71;34.70;99004.72;8331338;28;20053;-88
2022/08/05 12:50:23;;;;;;;6.28;3.80;;;;;;;32.80;33.85;98995.56;8342721;28;20395;-88
2022/08/05 12:54:30;;;;;;;3.60;3.30;;;;;;;32.84;34.20;98985.78;8346571;28;20386;-88
2022/08/05 12:58:32;;;;;;;;;;;;;;;32.81;34.01;98992.31;8344155;28;20196;-87
2022/08/05 13:02:34;;;;;;;5.20;3.00;;;;;;;32.83;34.65;98984.25;8362697;28;19921;-87
2022/08/05 13:06:42;;;;;;;7.28;3.40;;;;;;;32.91;34.83;98991.09;8353790;28;20052;-89
2022/08/05 13:10:43;;;;;;;4.68;3.45;;;;;;;32.93;33.41;98983.03;8361108;28;20056;-85
2022/08/05 13:14:46;;;;;;;7.78;3.08;;;;;;;32.93;33.64;98983.03;8361741;28;20048;-88
2022/08/05 13:18:58;;;;;;;5.18;3.03;;;;;;;32.98;32.61;98982.41;8361237;28;20142;-90
2022/08/05 13:22:59;;;;;;;4.45;3.58;;;;;;;32.97;32.43;98978.06;8361722;28;20052;-89
2022/08/05 13:27:00;;;;;;;6.22;3.63;;;;;;;32.99;32.96;98986.00;8378791;28;20044;-89
2022/08/05 13:31:01;;;;;;;4.68;3.50;;;;;;;33.02;33.90;98968.28;8354194;28;20075;-89
2022/08/05 13:35:03;;;;;;;6.88;3.45;;;;;;;33.16;33.21;98972.47;8360931;28;20474;-88
2022/08/05 13:39:05;;;;;;;4.63;3.40;;;;;;;34.50;30.12;98976.88;8360935;28;20045;-87
2022/08/05 13:43:06;;;;;;;3.67;2.90;;;;;;;35.58;28.39;98969.84;8357461;28;20052;-88
2022/08/05 13:47:07;;;;;;;5.88;3.00;;;;;;;36.53;27.18;98970.75;8393278;28;20483;-90
2022/08/05 13:51:12;;;;;;;22.70;3.25;;;;;;;38.28;27.11;98971.09;8360141;28;20070;-88
2022/08/05 13:55:13;;;;;;;4.28;3.05;;;;;;;39.54;25.57;98972.38;8359059;28;20045;-89
2022/08/05 13:59:14;;;;;;;3.95;3.20;;;;;;;40.37;25.37;98968.91;8368898;28;20060;-88
2022/08/05 14:03:15;;;;;;;6.97;3.00;;;;;;;41.03;24.67;98972.91;8360045;28;20098;-89
2022/08/05 14:07:18;;;;;;;5.70;3.08;;;;;;;41.73;22.73;98960.25;8360580;28;20053;-89
2022/08/05 14:11:19;;;;;;;9.18;2.95;;;;;;;42.57;22.91;98963.19;8360330;28;20463;-88
2022/08/05 14:15:20;;;;;;;7.18;2.83;;;;;;;43.26;22.11;98965.56;8360427;28;20061;-91
2022/08/05 14:19:21;;;;;;;5.45;2.60;;;;;;;43.86;20.67;98965.25;8359758;28;20087;-89
2022/08/05 14:23:23;;;;;;;7.00;2.70;;;;;;;44.39;20.31;98969.88;8360591;28;20105;-88
2022/08/05 14:27:26;;;;;;;4.70;3.13;;;;;;;44.99;19.19;98975.00;8360752;28;20531;-89
2022/08/05 14:31:27;;;;;;;3.53;2.47;;;;;;;45.31;18.86;98969.94;8358506;28;20037;-89
2022/08/05 14:35:28;;;;;;;3.45;2.42;;;;;;;45.86;18.59;98967.19;8360812;28;20049;-90
2022/08/05 14:39:30;;;;;;;3.03;2.47;;;;;;;46.18;18.07;98970.56;8359590;28;20048;-89
2022/08/05 14:43:31;;;;;;;6.35;2.42;;;;;;;46.45;17.48;98958.97;8359032;28;20057;-89
2022/08/05 14:47:35;;;;;;;4.47;2.17;;;;;;;46.40;18.02;98968.44;8360289;28;20053;-90
2022/08/05 14:51:37;;;;;;;3.20;2.35;;;;;;;46.71;16.94;98961.66;8362873;28;20053;-87
2022/08/05 14:55:39;;;;;;;7.45;2.22;;;;;;;46.84;16.93;98955.84;8367713;28;20119;-87
2022/08/05 14:59:40;;;;;;;2.45;1.98;;;;;;;46.88;16.59;98967.69;8364980;28;20073;-87
2022/08/05 15:03:41;;;;;;;2.85;2.22;;;;;;;46.55;16.54;98957.16;8365659;28;20053;-87
2022/08/05 15:07:41;;;;;;;4.78;2.38;;;;;;;47.01;16.02;98953.28;8366162;28;20398;-88
2022/08/05 15:11:43;;;;;;;6.82;2.33;;;;;;;47.32;16.01;98953.47;8363814;28;20090;-87
2022/08/05 15:15:44;;;;;;;3.30;2.25;;;;;;;47.58;15.69;98947.44;8363151;28;20052;-86
2022/08/05 15:19:45;;;;;;;6.00;2.42;;;;;;;48.02;16.01;98938.78;8364548;28;20426;-87
2022/08/05 15:23:45;;;;;;;3.10;2.47;;;;;;;47.85;16.60;98942.19;8363981;28;20049;-87
2022/08/05 15:27:46;;;;;;;8.85;2.47;;;;;;;45.49;17.33;98939.75;8363562;28;20060;-86
2022/08/05 15:31:47;;;;;;;4.95;2.30;;;;;;;43.87;18.65;98938.34;8363740;28;20049;-86
2022/08/05 15:35:48;;;;;;;5.28;2.28;;;;;;;42.06;19.49;98926.00;8358240;28;20044;-87
2022/08/05 15:39:49;;;;;;;5.28;2.20;;;;;;;40.85;20.70;98933.84;8352373;28;20033;-87
2022/08/05 15:43:51;;;;;;;5.90;2.40;;;;;;;39.89;21.48;98934.41;8318676;28;20101;-88
2022/08/05 15:47:52;;;;;;;4.80;2.30;;;;;;;38.75;22.54;98919.63;8355924;28;20068;-89
2022/08/05 15:51:53;;;;;;;3.05;2.30;;;;;;;37.96;23.59;98914.69;8319088;28;20621;-87
2022/08/05 15:55:54;;;;;;;2.70;2.50;;;;;;;37.29;24.45;98909.59;8363372;28;20041;-87
2022/08/05 15:59:55;;;;;;;4.72;3.22;;;;;;;36.69;26.20;98908.34;8364380;28;20087;-86
2022/08/05 16:03:56;;;;;;;16.10;3.00;;;;;;;36.21;27.25;98908.66;8363456;28;20653;-87
2022/08/05 16:07:57;;;;;;;2.80;2.47;;;;;;;35.74;27.44;98908.84;8362412;28;20048;-87
2022/08/05 16:11:59;;;;;;;12.55;3.20;;;;;;;35.66;27.43;98907.66;8363944;28;20128;-89
2022/08/05 16:16:00;;;;;;;9.20;2.80;;;;;;;35.24;27.73;98905.84;8358907;28;20092;-88
2022/08/05 16:20:01;;;;;;;7.93;2.60;;;;;;;34.99;28.10;98906.34;8361574;28;20060;-87
2022/08/05 16:24:02;;;;;;;11.25;2.75;;;;;;;34.67;28.70;98897.50;8361990;28;20102;-88
2022/08/05 16:28:05;;;;;;;8.18;3.03;;;;;;;34.34;30.60;98893.94;8361005;28;20056;-87
2022/08/05 16:32:06;;;;;;;9.43;3.15;;;;;;;34.05;31.60;98896.53;8358478;28;20041;-87
2022/08/05 16:36:07;;;;;;;8.40;3.08;;;;;;;33.75;32.62;98890.69;8362615;28;20605;-87
2022/08/05 16:40:09;;;;;;;7.18;2.95;;;;;;;33.46;33.34;98887.63;8361390;28;20095;-88
2022/08/05 16:44:12;;;;;;;4.95;2.53;;;;;;;33.16;34.26;98896.94;8361831;28;20194;-87
2022/08/05 16:48:13;;;;;;;5.63;2.78;;;;;;;32.88;35.14;98880.16;8362638;28;20059;-88
2022/08/05 16:52:14;;;;;;;5.05;3.05;;;;;;;32.62;35.60;98890.03;8361932;28;20045;-87
2022/08/05 16:56:15;;;;;;;13.65;4.57;;;;;;;32.40;36.87;98894.94;8362497;28;20056;-87
2022/08/05 17:00:16;;;;;;;10.23;3.30;;;;;;;32.17;38.04;98888.63;8361217;28;20052;-87
2022/08/05 17:04:17;;;;;;;7.20;2.92;;;;;;;31.98;39.02;98881.41;8348974;28;20060;-87
2022/08/05 17:08:21;;;;;;;6.90;3.72;;;;;;;31.80;40.11;98875.72;8358458;28;20065;-89
2022/08/05 17:12:22;;;;;;;6.90;4.45;;;;;;;31.57;41.20;98887.34;8362512;28;20045;-87
2022/08/05 17:16:23;;;;;;;11.02;3.80;;;;;;;31.35;42.60;98885.34;8361692;28;20135;-88
2022/08/05 17:20:25;;;;;;;17.73;5.13;;;;;;;31.19;43.51;98885.53;8359059;28;20064;-87
2022/08/05 17:24:26;;;;;;;10.32;4.57;;;;;;;31.02;44.34;98895.25;8360936;28;20053;-87
2022/08/05 17:28:27;;;;;;;17.05;5.18;;;;;;;30.80;45.78;98905.59;8360819;28;20132;-87
2022/08/05 17:32:27;;;;;;;7.00;4.47;;;;;;;30.58;46.75;98895.16;8357940;28;20103;-88
2022/08/05 17:36:28;;;;;;;6.15;4.30;;;;;;;30.35;48.59;98897.50;8358141;28;20048;-87
2022/08/05 17:40:29;;;;;;;6.40;4.20;;;;;;;30.12;49.22;98895.81;8360505;28;20068;-89
2022/08/05 17:44:31;;;;;;;10.07;4.50;;;;;;;29.93;49.59;98905.19;8359536;28;20040;-87
2022/08/05 17:48:32;;;;;;;7.50;4.68;;;;;;;29.78;49.42;98899.97;8361461;28;20413;-87
2022/08/05 17:52:34;;;;;;;7.93;4.50;;;;;;;29.63;49.64;98909.97;8343730;28;20449;-87
2022/08/05 17:56:35;;;;;;;6.40;4.80;;;;;;;29.48;50.78;98914.38;8368067;28;20053;-90
2022/08/05 18:00:37;;;;;;;13.00;4.82;;;;;;;29.31;51.69;98910.06;8360617;28;20060;-89
2022/08/05 18:04:37;;;;;;;8.32;4.85;;;;;;;29.17;51.92;98916.00;8363482;28;20106;-88
2022/08/05 18:08:40;;;;;;;6.75;4.82;;;;;;;29.02;52.23;98912.06;8369004;28;20049;-87
2022/08/05 18:12:41;;;;;;;7.13;4.60;;;;;;;28.86;52.43;98919.19;8364853;28;20049;-88
2022/08/05 18:16:42;;;;;;;7.32;4.45;;;;;;;28.64;53.16;98918.13;8355187;28;20541;-89
2022/08/05 18:20:43;;;;;;;5.45;3.47;;;;;;;28.44;53.41;98925.78;8363042;28;20045;-88
2022/08/05 18:24:45;;;;;;;7.10;3.55;;;;;;;28.32;53.70;98932.00;8363292;28;20041;-88
2022/08/05 18:28:47;;;;;;;7.97;4.07;;;;;;;28.20;54.13;98938.22;8358560;28;20041;-88
2022/08/05 18:32:48;;;;;;;10.60;4.78;;;;;;;28.18;53.49;98951.78;8359952;28;20443;-86
2022/08/05 18:36:49;;;;;;;10.05;4.82;;;;;;;27.73;52.64;98999.44;8368693;28;20049;-86
2022/08/05 18:40:50;;;;;;;15.38;5.45;;;;;;;28.11;46.88;98997.88;8359162;28;20145;-85
2022/08/05 18:44:50;;;;;;;14.80;6.07;;;;;;;28.28;46.61;99011.84;8357741;28;20052;-86
2022/08/05 18:48:52;;;;;;;16.00;5.75;;;;;;;28.26;46.80;99014.25;8358265;28;20117;-90
2022/08/05 18:52:56;;;;;;;22.42;6.05;;;;;;;28.19;46.34;99031.06;8358820;28;20908;-87
2022/08/05 18:57:01;;;;;;;15.73;4.57;;;;;;;28.16;45.83;99043.03;8358963;28;20581;-88
2022/08/05 19:01:05;;;;;;;10.38;4.72;;;;;;;28.08;45.66;99045.91;8359865;28;20045;-89